createdAt,value
2022-10-05T00:01:24.410Z,9.70
2022-10-05T00:04:01.320Z,9.23
2022-10-05T00:06:32.574Z,8.85
2022-10-05T00:09:03.633Z,15.55
2022-10-05T00:11:35.517Z,11.18
2022-10-05T00:16:41.624Z,10.80
2022-10-05T00:19:20.502Z,14.23
2022-10-05T00:21:50.842Z,11.48
2022-10-05T00:24:22.282Z,11.55
2022-10-05T00:26:57.812Z,10.48
2022-10-05T00:29:28.394Z,10.80
2022-10-05T00:31:58.770Z,19.15
2022-10-05T00:34:28.864Z,16.60
2022-10-05T00:36:59.991Z,17.58
2022-10-05T00:39:30.372Z,12.75
2022-10-05T00:42:23.134Z,14.18
2022-10-05T00:44:58.405Z,16.02
2022-10-05T00:47:43.764Z,17.25
2022-10-05T00:50:49.032Z,16.98
2022-10-05T00:53:32.697Z,19.30
2022-10-05T00:56:11.075Z,15.80
2022-10-05T00:58:56.952Z,15.07
2022-10-05T01:01:34.585Z,10.77
2022-10-05T01:04:13.102Z,14.38
2022-10-05T01:06:53.404Z,10.52
2022-10-05T01:09:39.322Z,12.55
2022-10-05T01:12:21.402Z,13.65
2022-10-05T01:15:01.571Z,13.88
2022-10-05T01:17:43.331Z,12.05
2022-10-05T01:20:45.063Z,12.13
2022-10-05T01:23:47.584Z,17.20
2022-10-05T01:26:33.175Z,10.05
2022-10-05T01:29:11.852Z,12.88
2022-10-05T01:31:50.103Z,10.63
2022-10-05T01:34:28.837Z,9.90
2022-10-05T01:37:08.471Z,12.07
2022-10-05T01:39:47.203Z,10.95
2022-10-05T01:42:29.924Z,11.45
2022-10-05T01:45:10.342Z,10.82
2022-10-05T01:47:47.353Z,15.73
2022-10-05T01:50:29.146Z,15.68
2022-10-05T01:53:07.723Z,10.95
2022-10-05T01:55:43.553Z,6.82
2022-10-05T01:58:22.112Z,11.93
2022-10-05T02:01:02.040Z,16.92
2022-10-05T02:03:40.291Z,11.40
2022-10-05T02:06:16.776Z,10.75
2022-10-05T02:08:54.242Z,15.52
2022-10-05T02:11:24.373Z,14.00
2022-10-05T02:14:00.325Z,16.48
2022-10-05T02:16:44.351Z,10.27
2022-10-05T02:19:20.520Z,12.48
2022-10-05T02:21:55.171Z,17.17
2022-10-05T02:24:40.121Z,13.80
2022-10-05T02:27:12.542Z,10.45
2022-10-05T02:29:50.663Z,14.07
2022-10-05T02:32:25.665Z,26.88
2022-10-05T02:35:03.545Z,27.35
2022-10-05T02:37:45.074Z,20.63
2022-10-05T02:40:25.264Z,17.02
2022-10-05T02:43:08.674Z,12.48
2022-10-05T02:45:51.807Z,17.95
2022-10-05T02:48:32.954Z,15.23
2022-10-05T02:51:12.302Z,13.73
2022-10-05T02:53:56.923Z,13.07
2022-10-05T02:56:38.344Z,13.30
2022-10-05T02:59:15.253Z,12.55
2022-10-05T03:01:51.983Z,13.27
2022-10-05T03:04:39.187Z,13.75
2022-10-05T03:07:17.093Z,11.80
2022-10-05T03:10:01.126Z,12.57
2022-10-05T03:12:50.983Z,19.90
2022-10-05T03:15:41.242Z,11.73
2022-10-05T03:18:21.554Z,14.80
2022-10-05T03:21:02.983Z,10.98
2022-10-05T03:23:45.842Z,15.10
2022-10-05T03:26:37.322Z,10.48
2022-10-05T03:29:21.893Z,15.75
2022-10-05T03:32:00.124Z,11.35
2022-10-05T03:34:44.683Z,18.13
2022-10-05T03:37:24.105Z,10.20
2022-10-05T03:40:02.066Z,12.52
2022-10-05T03:42:39.960Z,13.48
2022-10-05T03:45:35.103Z,12.43
2022-10-05T03:48:10.243Z,13.35
2022-10-05T03:50:49.075Z,11.98
2022-10-05T03:53:23.772Z,11.27
2022-10-05T03:56:00.373Z,12.82
2022-10-05T03:58:40.961Z,14.52
2022-10-05T04:01:16.314Z,11.40
2022-10-05T04:03:49.871Z,12.55
2022-10-05T04:06:25.697Z,19.80
2022-10-05T04:09:03.931Z,10.93
2022-10-05T04:11:41.361Z,10.73
2022-10-05T04:14:16.672Z,12.52
2022-10-05T04:16:50.074Z,11.52
2022-10-05T04:19:24.652Z,9.90
2022-10-05T04:22:06.177Z,15.15
2022-10-05T04:24:43.584Z,11.52
2022-10-05T04:27:17.942Z,11.38
2022-10-05T04:29:55.657Z,13.43
2022-10-05T04:32:37.713Z,12.60
2022-10-05T04:35:31.655Z,14.55
2022-10-05T04:38:17.584Z,10.98
2022-10-05T04:41:09.793Z,21.50
2022-10-05T04:43:51.384Z,14.05
2022-10-05T04:46:37.010Z,15.88
2022-10-05T04:49:37.955Z,15.27
2022-10-05T04:52:19.531Z,11.83
2022-10-05T04:55:04.295Z,9.00
2022-10-05T04:57:43.502Z,12.35
2022-10-05T05:00:25.441Z,12.10
2022-10-05T05:03:21.928Z,11.32
2022-10-05T05:06:17.940Z,14.55
2022-10-05T05:09:15.234Z,13.10
2022-10-05T05:12:04.184Z,12.35
2022-10-05T05:17:57.424Z,11.57
2022-10-05T05:20:40.429Z,12.60
2022-10-05T05:23:21.943Z,10.23
2022-10-05T05:26:08.895Z,16.85
2022-10-05T05:28:55.592Z,11.75
2022-10-05T05:31:38.438Z,15.98
2022-10-05T05:34:22.783Z,10.68
2022-10-05T05:37:02.761Z,13.73
2022-10-05T05:39:50.073Z,15.18
2022-10-05T05:42:37.243Z,12.85
2022-10-05T05:45:17.978Z,16.17
2022-10-05T05:47:54.587Z,11.98
2022-10-05T05:50:43.407Z,14.45
2022-10-05T05:53:20.605Z,12.70
2022-10-05T05:55:56.623Z,21.83
2022-10-05T05:58:34.241Z,11.77
2022-10-05T06:01:30.658Z,13.88
2022-10-05T06:04:09.005Z,13.52
2022-10-05T06:06:46.341Z,13.60
2022-10-05T06:09:24.626Z,15.32
2022-10-05T06:12:12.423Z,15.50
2022-10-05T06:14:48.805Z,15.35
2022-10-05T06:17:26.611Z,10.48
2022-10-05T06:20:04.686Z,12.30
2022-10-05T06:22:42.483Z,14.98
2022-10-05T06:25:26.952Z,10.55
2022-10-05T06:28:11.041Z,13.35
2022-10-05T06:31:14.665Z,12.35
2022-10-05T06:33:52.933Z,12.02
2022-10-05T06:36:42.592Z,16.33
2022-10-05T06:39:44.764Z,10.70
2022-10-05T06:42:45.803Z,12.50
2022-10-05T06:45:45.805Z,10.38
2022-10-05T06:49:04.564Z,11.82
2022-10-05T06:52:05.628Z,12.30
2022-10-05T06:54:54.097Z,13.68
2022-10-05T06:57:47.377Z,16.10
2022-10-05T07:00:22.006Z,10.27
2022-10-05T07:02:59.811Z,15.07
2022-10-05T07:05:46.997Z,12.88
2022-10-05T07:08:26.056Z,13.43
2022-10-05T07:14:11.854Z,11.32
2022-10-05T07:17:01.870Z,14.10
2022-10-05T07:19:43.353Z,14.55
2022-10-05T07:22:43.785Z,10.60
2022-10-05T07:25:22.361Z,11.43
2022-10-05T07:27:59.555Z,12.23
2022-10-05T07:30:33.717Z,21.50
2022-10-05T07:33:14.689Z,10.63
2022-10-05T07:36:09.973Z,12.52
2022-10-05T07:38:46.739Z,11.43
2022-10-05T07:41:24.390Z,13.38
2022-10-05T07:44:03.161Z,9.15
2022-10-05T07:46:57.079Z,10.70
2022-10-05T07:49:43.125Z,10.68
2022-10-05T07:52:18.675Z,14.63
2022-10-05T07:54:58.934Z,11.20
2022-10-05T07:57:41.367Z,11.00
2022-10-05T08:00:20.812Z,10.50
2022-10-05T08:02:58.622Z,10.80
2022-10-05T08:05:33.216Z,12.48
2022-10-05T08:08:16.687Z,9.98
2022-10-05T08:10:56.869Z,9.93
2022-10-05T08:13:35.385Z,12.60
2022-10-05T08:16:12.920Z,11.18
2022-10-05T08:18:57.138Z,11.50
2022-10-05T08:21:33.765Z,9.38
2022-10-05T08:24:14.882Z,10.38
2022-10-05T08:26:53.592Z,13.45
2022-10-05T08:29:29.058Z,10.93
2022-10-05T08:32:03.693Z,12.75
2022-10-05T08:34:43.125Z,10.07
2022-10-05T08:37:19.055Z,12.80
2022-10-05T08:39:56.806Z,9.55
2022-10-05T08:43:03.338Z,12.00
2022-10-05T08:46:04.451Z,9.27
2022-10-05T08:49:06.112Z,12.98
2022-10-05T08:52:01.072Z,10.43
2022-10-05T08:55:05.132Z,12.27
2022-10-05T08:58:20.834Z,10.30
2022-10-05T09:01:01.315Z,12.20
2022-10-05T09:04:08.625Z,10.15
2022-10-05T09:07:15.280Z,9.25
2022-10-05T09:10:29.195Z,13.13
2022-10-05T09:13:21.114Z,13.90
2022-10-05T09:16:15.504Z,13.88
2022-10-05T09:19:13.094Z,12.20
2022-10-05T09:21:45.059Z,11.07
2022-10-05T09:24:29.006Z,12.10
2022-10-05T09:27:11.821Z,9.73
2022-10-05T09:30:14.616Z,17.90
2022-10-05T09:33:13.773Z,10.73
2022-10-05T09:36:14.112Z,7.97
2022-10-05T09:39:20.585Z,12.68
2022-10-05T09:42:11.279Z,6.80
2022-10-05T09:45:12.120Z,9.95
2022-10-05T09:48:02.821Z,9.50
2022-10-05T09:51:08.086Z,8.30
2022-10-05T09:54:22.771Z,12.95
2022-10-05T09:57:42.782Z,9.32
2022-10-05T10:00:29.893Z,14.30
2022-10-05T10:03:27.899Z,9.07
2022-10-05T10:06:29.662Z,9.65
2022-10-05T10:09:25.532Z,11.27
2022-10-05T10:12:31.876Z,13.65
2022-10-05T10:15:40.484Z,10.85
2022-10-05T10:18:42.665Z,9.52
2022-10-05T10:21:38.352Z,12.35
2022-10-05T10:24:23.312Z,11.48
2022-10-05T10:27:35.307Z,14.75
2022-10-05T10:30:38.901Z,13.13
2022-10-05T10:33:37.701Z,9.50
2022-10-05T10:36:15.722Z,10.27
2022-10-05T10:39:00.334Z,10.30
2022-10-05T10:42:00.100Z,12.30
2022-10-05T10:45:06.774Z,10.55
2022-10-05T10:47:48.435Z,16.48
2022-10-05T10:50:45.406Z,17.98
2022-10-05T10:53:31.235Z,12.63
2022-10-05T10:56:30.693Z,12.45
2022-10-05T10:59:53.252Z,9.85
2022-10-05T11:02:53.395Z,10.27
2022-10-05T11:05:55.258Z,9.50
2022-10-05T11:09:02.000Z,14.15
2022-10-05T11:12:10.054Z,10.52
2022-10-05T11:15:18.765Z,9.52
2022-10-05T11:18:07.304Z,12.00
2022-10-05T11:21:16.132Z,9.40
2022-10-05T11:24:27.862Z,12.15
2022-10-05T11:30:41.013Z,12.48
2022-10-05T11:33:39.244Z,10.90
2022-10-05T11:36:42.583Z,13.45
2022-10-05T11:39:39.094Z,20.13
2022-10-05T11:42:40.215Z,13.63
2022-10-05T11:45:38.494Z,12.00
2022-10-05T11:48:44.445Z,14.80
2022-10-05T11:51:47.462Z,11.18
2022-10-05T11:55:09.806Z,9.15
2022-10-05T11:57:50.199Z,9.00
2022-10-05T12:00:22.519Z,14.68
2022-10-05T12:03:24.881Z,8.48
2022-10-05T12:06:08.741Z,9.98
2022-10-05T12:08:50.425Z,7.10
2022-10-05T12:11:48.324Z,9.07
2022-10-05T12:14:33.833Z,10.75
2022-10-05T12:17:12.222Z,10.73
2022-10-05T12:19:47.354Z,8.73
2022-10-05T12:22:23.113Z,9.68
2022-10-05T12:25:04.971Z,11.88
2022-10-05T12:27:40.865Z,9.95
2022-10-05T12:30:19.896Z,9.85
2022-10-05T12:33:02.433Z,10.48
2022-10-05T12:35:48.483Z,10.10
2022-10-05T12:38:28.745Z,9.85
2022-10-05T12:41:09.354Z,9.88
2022-10-05T12:43:54.929Z,12.13
2022-10-05T12:46:35.625Z,11.10
2022-10-05T12:49:36.642Z,11.35
2022-10-05T12:52:15.494Z,9.40
2022-10-05T12:54:53.234Z,11.52
2022-10-05T12:57:29.240Z,8.75
2022-10-05T13:00:08.142Z,12.38
2022-10-05T13:02:46.205Z,9.15
2022-10-05T13:05:25.092Z,13.82
2022-10-05T13:08:10.342Z,9.02
2022-10-05T13:10:46.468Z,10.45
2022-10-05T13:13:47.344Z,8.25
2022-10-05T13:16:27.166Z,8.98
2022-10-05T13:19:15.492Z,9.60
2022-10-05T13:22:11.335Z,12.82
2022-10-05T13:24:50.019Z,8.00
2022-10-05T13:27:25.413Z,8.68
2022-10-05T13:30:00.824Z,9.43
2022-10-05T13:32:37.364Z,9.27
2022-10-05T13:35:25.862Z,11.45
2022-10-05T13:38:04.753Z,7.82
2022-10-05T13:40:40.156Z,10.07
2022-10-05T13:43:20.493Z,10.45
2022-10-05T13:45:57.141Z,7.15
2022-10-05T13:48:50.421Z,8.27
2022-10-05T13:51:26.126Z,9.40
2022-10-05T13:54:05.150Z,9.40
2022-10-05T13:56:39.183Z,9.30
2022-10-05T13:59:20.236Z,12.73
2022-10-05T14:01:59.934Z,7.30
2022-10-05T14:04:32.725Z,9.27
2022-10-05T14:07:23.697Z,14.00
2022-10-05T14:09:54.078Z,7.40
2022-10-05T14:12:24.853Z,11.30
2022-10-05T14:14:57.245Z,9.65
2022-10-05T14:17:41.520Z,7.80
2022-10-05T14:20:26.356Z,8.32
2022-10-05T14:23:01.633Z,6.95
2022-10-05T14:25:32.849Z,7.70
2022-10-05T14:28:06.982Z,6.70
2022-10-05T14:30:40.028Z,10.23
2022-10-05T14:33:18.484Z,7.80
2022-10-05T14:35:52.625Z,10.38
2022-10-05T14:38:26.954Z,8.70
2022-10-05T14:41:19.058Z,7.75
2022-10-05T14:43:57.047Z,10.27
2022-10-05T14:46:32.909Z,11.02
2022-10-05T14:49:22.626Z,8.30
2022-10-05T14:51:54.044Z,9.35
2022-10-05T14:54:41.759Z,10.07
2022-10-05T14:57:25.620Z,8.70
2022-10-05T15:00:12.712Z,9.35
2022-10-05T15:03:16.077Z,9.48
2022-10-05T15:05:50.799Z,8.95
2022-10-05T15:09:17.981Z,9.85
2022-10-05T15:11:53.135Z,8.85
2022-10-05T15:14:34.814Z,9.05
2022-10-05T15:17:20.680Z,11.45
2022-10-05T15:20:00.041Z,14.25
2022-10-05T15:22:40.864Z,12.38
2022-10-05T15:25:18.832Z,10.15
2022-10-05T15:28:10.691Z,11.75
2022-10-05T15:30:48.311Z,9.88
2022-10-05T15:33:27.945Z,9.68
2022-10-05T15:36:08.573Z,13.18
2022-10-05T15:38:50.755Z,12.93
2022-10-05T15:41:26.064Z,12.35
2022-10-05T15:44:09.781Z,10.80
2022-10-05T15:46:52.152Z,11.52
2022-10-05T15:49:33.608Z,9.85
2022-10-05T15:52:18.104Z,14.77
2022-10-05T15:55:24.578Z,10.85
2022-10-05T15:58:13.743Z,12.00
2022-10-05T16:00:50.421Z,11.30
2022-10-05T16:03:29.656Z,12.57
2022-10-05T16:06:25.123Z,14.75
2022-10-05T16:09:10.771Z,14.65
2022-10-05T16:12:08.912Z,13.10
2022-10-05T16:14:57.075Z,14.55
2022-10-05T16:17:36.914Z,13.38
2022-10-05T16:20:24.914Z,11.25
2022-10-05T16:23:06.129Z,15.25
2022-10-05T16:25:50.075Z,14.32
2022-10-05T16:28:31.941Z,12.57
2022-10-05T16:31:10.227Z,14.88
2022-10-05T16:33:56.969Z,13.52
2022-10-05T16:36:42.245Z,12.45
2022-10-05T16:39:22.181Z,15.20
2022-10-05T16:42:04.201Z,11.95
2022-10-05T16:44:45.861Z,14.13
2022-10-05T16:47:36.465Z,10.32
2022-10-05T16:50:21.253Z,13.27
2022-10-05T16:52:59.943Z,11.30
2022-10-05T16:55:38.141Z,10.98
2022-10-05T16:58:17.622Z,12.43
2022-10-05T17:01:07.343Z,15.95
2022-10-05T17:03:52.831Z,13.02
2022-10-05T17:06:58.363Z,16.63
2022-10-05T17:09:52.836Z,13.05
2022-10-05T17:12:40.838Z,19.23
2022-10-05T17:15:31.901Z,16.65
2022-10-05T17:18:32.415Z,23.92
2022-10-05T17:21:14.082Z,18.30
2022-10-05T17:23:56.571Z,16.75
2022-10-05T17:26:59.876Z,15.90
2022-10-05T17:29:43.452Z,14.13
2022-10-05T17:32:30.432Z,18.52
2022-10-05T17:35:20.724Z,15.02
2022-10-05T17:38:14.701Z,17.23
2022-10-05T17:41:11.124Z,16.50
2022-10-05T17:44:06.443Z,21.05
2022-10-05T17:46:40.635Z,14.00
2022-10-05T17:50:11.419Z,15.45
2022-10-05T17:53:02.212Z,16.00
2022-10-05T17:56:07.371Z,22.65
2022-10-05T17:59:04.566Z,18.00
2022-10-05T18:01:38.444Z,18.83
2022-10-05T18:04:40.442Z,19.80
2022-10-05T18:07:27.004Z,15.65
2022-10-05T18:10:18.276Z,17.58
2022-10-05T18:12:51.133Z,17.52
2022-10-05T18:15:51.970Z,15.50
2022-10-05T18:18:56.893Z,20.90
2022-10-05T18:21:38.032Z,15.25
2022-10-05T18:27:34.540Z,19.63
2022-10-05T18:30:18.666Z,20.80
2022-10-05T18:33:43.453Z,16.15
2022-10-05T18:36:50.649Z,16.98
2022-10-05T18:39:41.951Z,19.25
2022-10-05T18:42:23.222Z,22.65
2022-10-05T18:44:59.183Z,18.20
2022-10-05T18:47:38.602Z,22.42
2022-10-05T18:50:25.066Z,21.65
2022-10-05T18:53:09.754Z,15.75
2022-10-05T18:55:46.597Z,18.02
2022-10-05T18:58:27.352Z,17.45
2022-10-05T19:01:15.382Z,19.70
2022-10-05T19:04:09.919Z,19.15
2022-10-05T19:06:53.474Z,19.45
2022-10-05T19:09:38.928Z,20.98
2022-10-05T19:12:20.042Z,24.67
2022-10-05T19:15:01.022Z,19.38
2022-10-05T19:17:47.532Z,17.27
2022-10-05T19:20:29.434Z,20.80
2022-10-05T19:23:15.904Z,20.42
2022-10-05T19:25:55.195Z,24.48
2022-10-05T19:28:31.400Z,24.20
2022-10-05T19:31:13.332Z,22.00
2022-10-05T19:33:59.800Z,22.83
2022-10-05T19:36:46.835Z,20.60
2022-10-05T19:39:30.373Z,20.92
2022-10-05T19:42:17.960Z,20.48
2022-10-05T19:45:00.364Z,24.02
2022-10-05T19:47:43.724Z,20.27
2022-10-05T19:50:31.433Z,20.75
2022-10-05T19:53:12.971Z,22.02
2022-10-05T19:55:45.954Z,19.92
2022-10-05T19:58:22.592Z,17.80
2022-10-05T20:01:07.812Z,21.05
2022-10-05T20:03:44.513Z,23.40
2022-10-05T20:06:27.582Z,25.40
2022-10-05T20:09:19.536Z,22.23
2022-10-05T20:11:55.732Z,19.90
2022-10-05T20:14:59.381Z,27.92
2022-10-05T20:17:50.492Z,32.03
2022-10-05T20:20:37.442Z,34.92
2022-10-05T20:23:28.243Z,45.20
2022-10-05T20:26:16.834Z,46.00
2022-10-05T20:28:52.964Z,31.25
2022-10-05T20:31:23.399Z,32.97
2022-10-05T20:33:53.424Z,32.65
2022-10-05T20:36:23.784Z,41.05
2022-10-05T20:38:53.752Z,46.05
2022-10-05T20:41:23.823Z,51.47
2022-10-05T20:43:56.023Z,41.40
2022-10-05T20:46:26.487Z,34.75
2022-10-05T20:48:56.453Z,42.40
2022-10-05T20:51:29.173Z,52.20
2022-10-05T20:53:59.384Z,41.90
2022-10-05T20:56:29.962Z,29.35
2022-10-05T20:59:01.683Z,37.72
2022-10-05T21:04:03.734Z,22.77
2022-10-05T21:06:33.647Z,23.98
2022-10-05T21:09:03.857Z,28.98
2022-10-05T21:11:33.832Z,29.00
2022-10-05T21:14:05.907Z,24.92
2022-10-05T21:16:38.378Z,23.60
2022-10-05T21:19:09.774Z,27.90
2022-10-05T21:21:41.324Z,25.55
2022-10-05T21:24:14.034Z,26.83
2022-10-05T21:26:44.603Z,29.00
2022-10-05T21:29:16.519Z,27.88
2022-10-05T21:31:46.546Z,28.77
2022-10-05T21:34:16.782Z,23.63
2022-10-05T21:36:46.764Z,28.15
2022-10-05T21:39:17.191Z,25.08
2022-10-05T21:41:49.613Z,27.40
2022-10-05T21:44:21.424Z,25.95
2022-10-05T21:46:51.776Z,27.75
2022-10-05T21:49:22.044Z,23.10
2022-10-05T21:51:52.043Z,25.23
2022-10-05T21:54:24.283Z,30.92
2022-10-05T21:56:56.938Z,29.33
2022-10-05T21:59:32.833Z,24.92
2022-10-05T22:02:02.884Z,27.88
2022-10-05T22:04:33.143Z,21.25
2022-10-05T22:07:03.124Z,22.05
2022-10-05T22:09:33.225Z,18.95
2022-10-05T22:12:03.163Z,27.33
2022-10-05T22:14:34.525Z,20.17
2022-10-05T22:17:04.989Z,22.02
2022-10-05T22:19:34.957Z,21.77
2022-10-05T22:22:08.624Z,21.73
2022-10-05T22:24:41.007Z,20.10
2022-10-05T22:27:11.373Z,21.08
2022-10-05T22:29:43.004Z,19.33
2022-10-05T22:32:13.244Z,29.77
2022-10-05T22:34:43.134Z,20.17
2022-10-05T22:37:14.132Z,24.38
2022-10-05T22:39:45.082Z,22.40
2022-10-05T22:42:15.014Z,23.33
2022-10-05T22:44:46.584Z,19.50
2022-10-05T22:47:16.565Z,22.52
2022-10-05T22:49:46.679Z,19.25
2022-10-05T22:52:16.576Z,20.33
2022-10-05T22:54:46.795Z,18.65
2022-10-05T22:57:16.923Z,19.85
2022-10-05T22:59:48.264Z,17.65
2022-10-05T23:04:49.014Z,18.48
2022-10-05T23:07:19.205Z,19.88
2022-10-05T23:09:49.075Z,18.90
2022-10-05T23:12:19.003Z,20.63
2022-10-05T23:14:50.643Z,22.33
2022-10-05T23:17:22.674Z,20.08
2022-10-05T23:19:52.835Z,16.20
2022-10-05T23:22:23.963Z,20.90
2022-10-05T23:24:54.412Z,21.35
2022-10-05T23:27:24.464Z,19.42
2022-10-05T23:29:55.852Z,17.17
2022-10-05T23:32:26.224Z,16.98
2022-10-05T23:34:56.115Z,20.42
2022-10-05T23:37:28.294Z,20.98
2022-10-05T23:39:58.505Z,20.35
2022-10-05T23:42:28.492Z,18.77
2022-10-05T23:44:59.854Z,18.92
2022-10-05T23:49:59.604Z,18.15
2022-10-05T23:52:29.923Z,21.30
2022-10-05T23:55:00.044Z,16.88
2022-10-05T23:57:30.103Z,17.35
